sensor_id;sensor_type;location;lat;lon;timestamp;temperature;humidity
11736;DHT22;5924;51.398;7.088;2023-04-03T00:01:35;-1.30;99.90
11736;DHT22;5924;51.398;7.088;2023-04-03T00:04:04;-1.30;99.90
11736;DHT22;5924;51.398;7.088;2023-04-03T00:06:30;-1.30;99.90
11736;DHT22;5924;51.398;7.088;2023-04-03T00:08:56;-1.30;99.90
11736;DHT22;5924;51.398;7.088;2023-04-03T00:11:22;-1.30;99.90
11736;DHT22;5924;51.398;7.088;2023-04-03T00:13:47;-1.40;99.90
11736;DHT22;5924;51.398;7.088;2023-04-03T00:16:13;0.20;99.90
11736;DHT22;5924;51.398;7.088;2023-04-03T00:18:40;-1.30;99.90
11736;DHT22;5924;51.398;7.088;2023-04-03T00:21:06;-1.30;99.90
11736;DHT22;5924;51.398;7.088;2023-04-03T00:23:32;-1.30;99.90
11736;DHT22;5924;51.398;7.088;2023-04-03T00:25:58;-1.40;99.90
11736;DHT22;5924;51.398;7.088;2023-04-03T00:28:24;-1.40;99.90
11736;DHT22;5924;51.398;7.088;2023-04-03T00:30:51;-1.40;99.90
11736;DHT22;5924;51.398;7.088;2023-04-03T00:33:17;-1.50;99.90
11736;DHT22;5924;51.398;7.088;2023-04-03T00:35:43;-1.40;99.90
11736;DHT22;5924;51.398;7.088;2023-04-03T00:38:09;-1.50;99.90
11736;DHT22;5924;51.398;7.088;2023-04-03T00:40:41;-1.50;99.90
11736;DHT22;5924;51.398;7.088;2023-04-03T00:43:25;-1.60;99.90
11736;DHT22;5924;51.398;7.088;2023-04-03T00:45:56;-1.60;99.90
11736;DHT22;5924;51.398;7.088;2023-04-03T00:48:26;-1.60;99.90
11736;DHT22;5924;51.398;7.088;2023-04-03T00:50:53;-1.60;99.90
11736;DHT22;5924;51.398;7.088;2023-04-03T00:53:30;-1.50;99.90
11736;DHT22;5924;51.398;7.088;2023-04-03T00:55:58;-1.60;99.90
11736;DHT22;5924;51.398;7.088;2023-04-03T00:58:37;-1.60;99.90
11736;DHT22;5924;51.398;7.088;2023-04-03T01:01:08;-1.60;99.90
11736;DHT22;5924;51.398;7.088;2023-04-03T01:03:35;-1.70;99.90
11736;DHT22;5924;51.398;7.088;2023-04-03T01:06:01;-1.60;99.90
11736;DHT22;5924;51.398;7.088;2023-04-03T01:08:27;-1.60;99.90
11736;DHT22;5924;51.398;7.088;2023-04-03T01:10:53;-1.70;99.90
11736;DHT22;5924;51.398;7.088;2023-04-03T01:13:28;-1.30;99.90
11736;DHT22;5924;51.398;7.088;2023-04-03T01:15:54;-1.70;99.90
11736;DHT22;5924;51.398;7.088;2023-04-03T01:18:21;-1.70;99.90
11736;DHT22;5924;51.398;7.088;2023-04-03T01:20:58;-1.70;99.90
11736;DHT22;5924;51.398;7.088;2023-04-03T01:25:58;-1.70;99.90
11736;DHT22;5924;51.398;7.088;2023-04-03T01:28:31;-1.50;99.90
11736;DHT22;5924;51.398;7.088;2023-04-03T01:33:53;-1.80;99.90
11736;DHT22;5924;51.398;7.088;2023-04-03T01:36:28;-1.80;99.90
11736;DHT22;5924;51.398;7.088;2023-04-03T01:38:54;-1.80;99.90
11736;DHT22;5924;51.398;7.088;2023-04-03T01:41:20;-3.90;99.90
11736;DHT22;5924;51.398;7.088;2023-04-03T01:43:47;-1.80;99.90
11736;DHT22;5924;51.398;7.088;2023-04-03T01:46:15;-1.80;99.90
11736;DHT22;5924;51.398;7.088;2023-04-03T01:48:44;-1.80;99.90
11736;DHT22;5924;51.398;7.088;2023-04-03T01:51:10;-1.90;99.90
11736;DHT22;5924;51.398;7.088;2023-04-03T01:53:36;-1.90;99.90
11736;DHT22;5924;51.398;7.088;2023-04-03T01:56:01;-1.90;99.90
11736;DHT22;5924;51.398;7.088;2023-04-03T01:58:27;-1.90;99.90
11736;DHT22;5924;51.398;7.088;2023-04-03T02:00:53;-1.90;99.90
11736;DHT22;5924;51.398;7.088;2023-04-03T02:03:19;-1.90;99.90
11736;DHT22;5924;51.398;7.088;2023-04-03T02:05:45;-2.00;99.90
11736;DHT22;5924;51.398;7.088;2023-04-03T02:08:11;-2.00;99.90
11736;DHT22;5924;51.398;7.088;2023-04-03T02:10:37;-2.00;99.90
11736;DHT22;5924;51.398;7.088;2023-04-03T02:13:02;-2.00;99.90
11736;DHT22;5924;51.398;7.088;2023-04-03T02:15:28;-2.00;99.90
11736;DHT22;5924;51.398;7.088;2023-04-03T02:17:54;-2.00;99.90
11736;DHT22;5924;51.398;7.088;2023-04-03T02:20:20;-2.00;99.90
11736;DHT22;5924;51.398;7.088;2023-04-03T02:22:46;-2.00;99.90
11736;DHT22;5924;51.398;7.088;2023-04-03T02:25:11;-2.00;99.90
11736;DHT22;5924;51.398;7.088;2023-04-03T02:27:38;-2.00;99.90
11736;DHT22;5924;51.398;7.088;2023-04-03T02:30:04;-2.00;99.90
11736;DHT22;5924;51.398;7.088;2023-04-03T02:32:30;-2.00;99.90
11736;DHT22;5924;51.398;7.088;2023-04-03T02:34:56;-2.00;99.90
11736;DHT22;5924;51.398;7.088;2023-04-03T02:37:22;-2.00;99.90
11736;DHT22;5924;51.398;7.088;2023-04-03T02:39:47;-2.10;99.90
11736;DHT22;5924;51.398;7.088;2023-04-03T02:42:13;-2.10;99.90
11736;DHT22;5924;51.398;7.088;2023-04-03T02:44:39;-2.00;99.90
11736;DHT22;5924;51.398;7.088;2023-04-03T02:47:05;-2.00;99.90
11736;DHT22;5924;51.398;7.088;2023-04-03T02:49:31;-2.00;99.90
11736;DHT22;5924;51.398;7.088;2023-04-03T02:51:57;-2.00;99.90
11736;DHT22;5924;51.398;7.088;2023-04-03T02:54:22;-2.10;99.90
11736;DHT22;5924;51.398;7.088;2023-04-03T02:56:50;-2.10;99.90
11736;DHT22;5924;51.398;7.088;2023-04-03T02:59:16;-2.20;99.90
11736;DHT22;5924;51.398;7.088;2023-04-03T03:01:41;-2.20;99.90
11736;DHT22;5924;51.398;7.088;2023-04-03T03:04:07;-2.20;99.90
11736;DHT22;5924;51.398;7.088;2023-04-03T03:06:33;-2.20;99.90
11736;DHT22;5924;51.398;7.088;2023-04-03T03:08:58;-1.10;99.90
11736;DHT22;5924;51.398;7.088;2023-04-03T03:11:25;-2.20;99.90
11736;DHT22;5924;51.398;7.088;2023-04-03T03:13:50;-2.20;99.90
11736;DHT22;5924;51.398;7.088;2023-04-03T03:16:16;-2.20;99.90
11736;DHT22;5924;51.398;7.088;2023-04-03T03:18:42;-2.10;99.90
11736;DHT22;5924;51.398;7.088;2023-04-03T03:21:09;-2.20;99.90
11736;DHT22;5924;51.398;7.088;2023-04-03T03:23:35;-2.10;99.90
11736;DHT22;5924;51.398;7.088;2023-04-03T03:26:03;-2.10;99.90
11736;DHT22;5924;51.398;7.088;2023-04-03T03:28:30;-2.10;99.90
11736;DHT22;5924;51.398;7.088;2023-04-03T03:30:57;-2.20;99.90
11736;DHT22;5924;51.398;7.088;2023-04-03T03:33:23;-2.20;99.90
11736;DHT22;5924;51.398;7.088;2023-04-03T03:35:49;-2.20;99.90
11736;DHT22;5924;51.398;7.088;2023-04-03T03:38:15;-3.30;99.90
11736;DHT22;5924;51.398;7.088;2023-04-03T03:40:41;-1.90;99.90
11736;DHT22;5924;51.398;7.088;2023-04-03T03:43:06;-2.20;99.90
11736;DHT22;5924;51.398;7.088;2023-04-03T03:45:32;-2.20;99.90
11736;DHT22;5924;51.398;7.088;2023-04-03T03:47:57;-2.20;99.90
11736;DHT22;5924;51.398;7.088;2023-04-03T03:50:23;-2.30;99.90
11736;DHT22;5924;51.398;7.088;2023-04-03T03:52:49;-2.30;99.90
11736;DHT22;5924;51.398;7.088;2023-04-03T03:55:15;-2.30;99.90
11736;DHT22;5924;51.398;7.088;2023-04-03T03:57:40;-2.30;99.90
11736;DHT22;5924;51.398;7.088;2023-04-03T04:00:06;-2.30;99.90
11736;DHT22;5924;51.398;7.088;2023-04-03T04:02:32;-2.30;99.90
11736;DHT22;5924;51.398;7.088;2023-04-03T04:04:58;-1.50;99.90
11736;DHT22;5924;51.398;7.088;2023-04-03T04:07:24;-2.20;99.90
11736;DHT22;5924;51.398;7.088;2023-04-03T04:09:49;-2.20;99.90
11736;DHT22;5924;51.398;7.088;2023-04-03T04:12:15;-2.20;99.90
11736;DHT22;5924;51.398;7.088;2023-04-03T04:14:41;0.70;99.90
11736;DHT22;5924;51.398;7.088;2023-04-03T04:17:07;-2.20;99.90
11736;DHT22;5924;51.398;7.088;2023-04-03T04:19:32;-2.20;99.90
11736;DHT22;5924;51.398;7.088;2023-04-03T04:21:58;-2.20;99.90
11736;DHT22;5924;51.398;7.088;2023-04-03T04:24:24;-2.20;99.90
11736;DHT22;5924;51.398;7.088;2023-04-03T04:26:50;-2.20;99.90
11736;DHT22;5924;51.398;7.088;2023-04-03T04:29:15;-2.20;99.90
11736;DHT22;5924;51.398;7.088;2023-04-03T04:31:41;-2.20;99.90
11736;DHT22;5924;51.398;7.088;2023-04-03T04:34:07;-2.30;99.90
11736;DHT22;5924;51.398;7.088;2023-04-03T04:36:32;-2.30;99.90
11736;DHT22;5924;51.398;7.088;2023-04-03T04:38:58;-2.30;99.90
11736;DHT22;5924;51.398;7.088;2023-04-03T04:41:24;-2.30;99.90
11736;DHT22;5924;51.398;7.088;2023-04-03T04:43:50;-2.30;99.90
11736;DHT22;5924;51.398;7.088;2023-04-03T04:46:16;-4.10;99.90
11736;DHT22;5924;51.398;7.088;2023-04-03T04:48:43;-2.30;99.90
11736;DHT22;5924;51.398;7.088;2023-04-03T04:51:09;-2.30;99.90
11736;DHT22;5924;51.398;7.088;2023-04-03T04:53:35;-2.20;99.90
11736;DHT22;5924;51.398;7.088;2023-04-03T04:56:01;-2.30;99.90
11736;DHT22;5924;51.398;7.088;2023-04-03T04:58:26;-2.30;99.90
11736;DHT22;5924;51.398;7.088;2023-04-03T05:01:00;-2.20;99.90
11736;DHT22;5924;51.398;7.088;2023-04-03T05:03:25;-2.20;99.90
11736;DHT22;5924;51.398;7.088;2023-04-03T05:05:51;-2.20;99.90
11736;DHT22;5924;51.398;7.088;2023-04-03T05:08:17;-2.20;99.90
11736;DHT22;5924;51.398;7.088;2023-04-03T05:10:42;-2.20;99.90
11736;DHT22;5924;51.398;7.088;2023-04-03T05:13:09;-2.20;99.90
11736;DHT22;5924;51.398;7.088;2023-04-03T05:15:35;-2.20;99.90
11736;DHT22;5924;51.398;7.088;2023-04-03T05:18:01;-2.20;99.90
11736;DHT22;5924;51.398;7.088;2023-04-03T05:20:26;-2.80;99.90
11736;DHT22;5924;51.398;7.088;2023-04-03T05:22:52;-2.20;99.90
11736;DHT22;5924;51.398;7.088;2023-04-03T05:25:17;-2.20;99.90
11736;DHT22;5924;51.398;7.088;2023-04-03T05:27:43;-2.20;99.90
11736;DHT22;5924;51.398;7.088;2023-04-03T05:30:09;-2.20;99.90
11736;DHT22;5924;51.398;7.088;2023-04-03T05:32:35;-2.20;99.90
11736;DHT22;5924;51.398;7.088;2023-04-03T05:35:01;-2.20;99.90
11736;DHT22;5924;51.398;7.088;2023-04-03T05:37:26;-2.10;99.90
11736;DHT22;5924;51.398;7.088;2023-04-03T05:39:52;-2.10;99.90
11736;DHT22;5924;51.398;7.088;2023-04-03T05:42:17;-2.10;99.90
11736;DHT22;5924;51.398;7.088;2023-04-03T05:44:43;-2.10;99.90
11736;DHT22;5924;51.398;7.088;2023-04-03T05:47:11;-2.10;99.90
11736;DHT22;5924;51.398;7.088;2023-04-03T05:49:37;-2.10;99.90
11736;DHT22;5924;51.398;7.088;2023-04-03T05:52:09;-2.10;99.90
11736;DHT22;5924;51.398;7.088;2023-04-03T05:54:38;-2.10;99.90
11736;DHT22;5924;51.398;7.088;2023-04-03T05:57:03;-2.00;99.90
11736;DHT22;5924;51.398;7.088;2023-04-03T05:59:29;-2.00;99.90
11736;DHT22;5924;51.398;7.088;2023-04-03T06:01:55;-2.00;99.90
11736;DHT22;5924;51.398;7.088;2023-04-03T06:04:20;-4.20;99.90
11736;DHT22;5924;51.398;7.088;2023-04-03T06:06:56;-1.80;99.90
11736;DHT22;5924;51.398;7.088;2023-04-03T06:09:25;-1.80;99.90
11736;DHT22;5924;51.398;7.088;2023-04-03T06:11:52;-1.70;99.90
11736;DHT22;5924;51.398;7.088;2023-04-03T06:14:18;-1.60;99.90
11736;DHT22;5924;51.398;7.088;2023-04-03T06:16:44;-1.50;99.90
11736;DHT22;5924;51.398;7.088;2023-04-03T06:19:10;-1.40;99.90
11736;DHT22;5924;51.398;7.088;2023-04-03T06:21:37;-1.40;99.90
11736;DHT22;5924;51.398;7.088;2023-04-03T06:24:04;-1.30;99.90
11736;DHT22;5924;51.398;7.088;2023-04-03T06:26:31;-1.20;99.90
11736;DHT22;5924;51.398;7.088;2023-04-03T06:28:57;-1.10;99.90
11736;DHT22;5924;51.398;7.088;2023-04-03T06:31:23;-1.00;99.90
11736;DHT22;5924;51.398;7.088;2023-04-03T06:33:49;-0.90;99.90
11736;DHT22;5924;51.398;7.088;2023-04-03T06:36:15;-0.80;99.90
11736;DHT22;5924;51.398;7.088;2023-04-03T06:38:45;-0.80;99.90
11736;DHT22;5924;51.398;7.088;2023-04-03T06:41:11;-0.80;99.90
11736;DHT22;5924;51.398;7.088;2023-04-03T06:43:37;-0.70;99.90
11736;DHT22;5924;51.398;7.088;2023-04-03T06:46:03;-0.60;99.90
11736;DHT22;5924;51.398;7.088;2023-04-03T06:48:29;-0.50;99.90
11736;DHT22;5924;51.398;7.088;2023-04-03T06:50:55;-0.40;99.90
11736;DHT22;5924;51.398;7.088;2023-04-03T06:53:20;-0.30;99.90
11736;DHT22;5924;51.398;7.088;2023-04-03T06:55:47;-0.20;99.90
11736;DHT22;5924;51.398;7.088;2023-04-03T06:58:12;-0.20;99.90
11736;DHT22;5924;51.398;7.088;2023-04-03T07:00:39;-0.20;99.90
11736;DHT22;5924;51.398;7.088;2023-04-03T07:03:05;-0.10;99.90
11736;DHT22;5924;51.398;7.088;2023-04-03T07:05:30;0.00;99.90
11736;DHT22;5924;51.398;7.088;2023-04-03T07:07:56;0.00;99.90
11736;DHT22;5924;51.398;7.088;2023-04-03T07:10:23;0.10;99.90
11736;DHT22;5924;51.398;7.088;2023-04-03T07:12:48;0.20;99.90
11736;DHT22;5924;51.398;7.088;2023-04-03T07:15:14;0.20;99.90
11736;DHT22;5924;51.398;7.088;2023-04-03T07:17:40;0.30;99.90
11736;DHT22;5924;51.398;7.088;2023-04-03T07:20:07;0.40;99.90
11736;DHT22;5924;51.398;7.088;2023-04-03T07:22:33;0.50;99.90
11736;DHT22;5924;51.398;7.088;2023-04-03T07:24:59;0.60;99.90
11736;DHT22;5924;51.398;7.088;2023-04-03T07:27:25;0.60;99.90
11736;DHT22;5924;51.398;7.088;2023-04-03T07:29:51;0.80;99.90
11736;DHT22;5924;51.398;7.088;2023-04-03T07:32:17;0.80;99.90
11736;DHT22;5924;51.398;7.088;2023-04-03T07:34:43;0.90;99.90
11736;DHT22;5924;51.398;7.088;2023-04-03T07:37:09;1.00;99.90
11736;DHT22;5924;51.398;7.088;2023-04-03T07:39:35;1.10;99.90
11736;DHT22;5924;51.398;7.088;2023-04-03T07:42:01;1.20;99.90
11736;DHT22;5924;51.398;7.088;2023-04-03T07:44:27;1.20;99.90
11736;DHT22;5924;51.398;7.088;2023-04-03T07:46:54;1.30;99.90
11736;DHT22;5924;51.398;7.088;2023-04-03T07:49:21;1.40;99.90
11736;DHT22;5924;51.398;7.088;2023-04-03T07:51:49;1.50;99.90
11736;DHT22;5924;51.398;7.088;2023-04-03T07:54:15;1.70;99.90
11736;DHT22;5924;51.398;7.088;2023-04-03T07:56:41;2.10;99.90
11736;DHT22;5924;51.398;7.088;2023-04-03T07:59:09;2.00;99.90
11736;DHT22;5924;51.398;7.088;2023-04-03T08:01:35;2.10;99.90
11736;DHT22;5924;51.398;7.088;2023-04-03T08:04:00;2.30;99.90
11736;DHT22;5924;51.398;7.088;2023-04-03T08:06:26;2.40;99.90
11736;DHT22;5924;51.398;7.088;2023-04-03T08:08:52;2.50;99.90
11736;DHT22;5924;51.398;7.088;2023-04-03T08:11:18;2.60;99.90
11736;DHT22;5924;51.398;7.088;2023-04-03T08:13:44;2.80;99.90
11736;DHT22;5924;51.398;7.088;2023-04-03T08:16:17;2.90;99.90
11736;DHT22;5924;51.398;7.088;2023-04-03T08:18:43;2.90;99.90
11736;DHT22;5924;51.398;7.088;2023-04-03T08:21:10;3.00;99.90
11736;DHT22;5924;51.398;7.088;2023-04-03T08:23:37;3.20;99.90
11736;DHT22;5924;51.398;7.088;2023-04-03T08:26:22;3.30;99.90
11736;DHT22;5924;51.398;7.088;2023-04-03T08:28:48;3.50;99.90
11736;DHT22;5924;51.398;7.088;2023-04-03T08:31:16;3.60;99.90
11736;DHT22;5924;51.398;7.088;2023-04-03T08:33:44;3.60;99.90
11736;DHT22;5924;51.398;7.088;2023-04-03T08:36:22;3.70;99.90
11736;DHT22;5924;51.398;7.088;2023-04-03T08:38:49;3.90;99.90
11736;DHT22;5924;51.398;7.088;2023-04-03T08:44:39;4.00;99.90
11736;DHT22;5924;51.398;7.088;2023-04-03T08:47:38;4.00;99.90
11736;DHT22;5924;51.398;7.088;2023-04-03T08:50:34;4.00;99.90
11736;DHT22;5924;51.398;7.088;2023-04-03T08:53:02;4.00;99.90
11736;DHT22;5924;51.398;7.088;2023-04-03T08:55:37;4.10;99.90
11736;DHT22;5924;51.398;7.088;2023-04-03T08:58:09;4.10;99.90
11736;DHT22;5924;51.398;7.088;2023-04-03T09:00:59;4.30;99.90
11736;DHT22;5924;51.398;7.088;2023-04-03T09:03:30;4.40;99.90
11736;DHT22;5924;51.398;7.088;2023-04-03T09:06:02;4.60;99.90
11736;DHT22;5924;51.398;7.088;2023-04-03T09:08:35;4.70;99.90
11736;DHT22;5924;51.398;7.088;2023-04-03T09:11:41;4.80;99.90
11736;DHT22;5924;51.398;7.088;2023-04-03T09:16:49;4.30;99.90
11736;DHT22;5924;51.398;7.088;2023-04-03T09:22:27;5.30;99.90
11736;DHT22;5924;51.398;7.088;2023-04-03T09:25:05;5.40;99.90
11736;DHT22;5924;51.398;7.088;2023-04-03T09:27:34;5.50;99.90
11736;DHT22;5924;51.398;7.088;2023-04-03T09:30:00;5.50;99.90
11736;DHT22;5924;51.398;7.088;2023-04-03T09:32:30;5.60;99.90
11736;DHT22;5924;51.398;7.088;2023-04-03T09:35:02;5.70;99.90
11736;DHT22;5924;51.398;7.088;2023-04-03T09:37:36;5.90;99.90
11736;DHT22;5924;51.398;7.088;2023-04-03T09:40:03;5.90;99.90
11736;DHT22;5924;51.398;7.088;2023-04-03T09:42:30;5.00;99.90
11736;DHT22;5924;51.398;7.088;2023-04-03T09:45:04;6.00;99.90
11736;DHT22;5924;51.398;7.088;2023-04-03T09:47:35;6.00;99.90
11736;DHT22;5924;51.398;7.088;2023-04-03T09:52:44;6.10;99.90
11736;DHT22;5924;51.398;7.088;2023-04-03T09:55:18;6.00;99.90
11736;DHT22;5924;51.398;7.088;2023-04-03T09:57:47;6.00;99.90
11736;DHT22;5924;51.398;7.088;2023-04-03T10:00:34;6.10;99.90
11736;DHT22;5924;51.398;7.088;2023-04-03T10:03:01;6.30;99.90
11736;DHT22;5924;51.398;7.088;2023-04-03T10:05:36;6.50;99.90
11736;DHT22;5924;51.398;7.088;2023-04-03T10:08:22;6.60;99.90
11736;DHT22;5924;51.398;7.088;2023-04-03T10:13:31;6.70;99.90
11736;DHT22;5924;51.398;7.088;2023-04-03T10:16:07;6.80;99.90
11736;DHT22;5924;51.398;7.088;2023-04-03T10:21:35;6.90;99.90
11736;DHT22;5924;51.398;7.088;2023-04-03T10:24:21;7.00;99.90
11736;DHT22;5924;51.398;7.088;2023-04-03T10:34:35;7.60;99.90
11736;DHT22;5924;51.398;7.088;2023-04-03T10:45:31;7.50;99.90
11736;DHT22;5924;51.398;7.088;2023-04-03T10:54:00;7.80;99.90
11736;DHT22;5924;51.398;7.088;2023-04-03T10:56:41;7.70;99.90
11736;DHT22;5924;51.398;7.088;2023-04-03T11:01:41;7.70;99.90
11736;DHT22;5924;51.398;7.088;2023-04-03T11:04:09;7.70;99.90
11736;DHT22;5924;51.398;7.088;2023-04-03T11:06:43;7.80;99.90
11736;DHT22;5924;51.398;7.088;2023-04-03T11:09:53;7.80;99.90
11736;DHT22;5924;51.398;7.088;2023-04-03T11:12:46;7.90;99.90
11736;DHT22;5924;51.398;7.088;2023-04-03T11:15:18;7.90;99.90
11736;DHT22;5924;51.398;7.088;2023-04-03T11:18:00;8.00;99.90
11736;DHT22;5924;51.398;7.088;2023-04-03T11:20:32;8.20;99.90
11736;DHT22;5924;51.398;7.088;2023-04-03T11:23:12;8.30;99.90
11736;DHT22;5924;51.398;7.088;2023-04-03T11:25:42;8.30;99.90
11736;DHT22;5924;51.398;7.088;2023-04-03T11:28:14;8.30;99.90
11736;DHT22;5924;51.398;7.088;2023-04-03T11:36:12;8.50;99.90
11736;DHT22;5924;51.398;7.088;2023-04-03T11:38:45;8.70;99.90
11736;DHT22;5924;51.398;7.088;2023-04-03T11:41:13;8.80;99.90
11736;DHT22;5924;51.398;7.088;2023-04-03T11:43:42;8.80;99.60
11736;DHT22;5924;51.398;7.088;2023-04-03T11:46:09;7.40;99.90
11736;DHT22;5924;51.398;7.088;2023-04-03T11:53:40;9.10;96.80
11736;DHT22;5924;51.398;7.088;2023-04-03T11:56:28;9.10;94.30
11736;DHT22;5924;51.398;7.088;2023-04-03T12:01:45;8.90;96.00
11736;DHT22;5924;51.398;7.088;2023-04-03T12:04:12;9.00;96.00
11736;DHT22;5924;51.398;7.088;2023-04-03T12:11:51;9.30;94.20
11736;DHT22;5924;51.398;7.088;2023-04-03T12:14:17;9.30;94.60
11736;DHT22;5924;51.398;7.088;2023-04-03T12:16:45;9.80;96.30
11736;DHT22;5924;51.398;7.088;2023-04-03T12:37:47;15.00;73.00
11736;DHT22;5924;51.398;7.088;2023-04-03T12:48:47;15.90;62.40
11736;DHT22;5924;51.398;7.088;2023-04-03T12:53:58;16.20;58.80
11736;DHT22;5924;51.398;7.088;2023-04-03T12:56:30;16.00;57.60
11736;DHT22;5924;51.398;7.088;2023-04-03T12:59:14;16.20;57.70
11736;DHT22;5924;51.398;7.088;2023-04-03T13:01:40;16.30;59.10
11736;DHT22;5924;51.398;7.088;2023-04-03T13:04:06;16.50;59.80
11736;DHT22;5924;51.398;7.088;2023-04-03T13:06:42;16.70;57.50
11736;DHT22;5924;51.398;7.088;2023-04-03T13:09:23;16.70;56.60
11736;DHT22;5924;51.398;7.088;2023-04-03T13:12:01;16.10;55.30
11736;DHT22;5924;51.398;7.088;2023-04-03T13:14:29;16.40;56.90
11736;DHT22;5924;51.398;7.088;2023-04-03T13:17:03;16.30;55.20
11736;DHT22;5924;51.398;7.088;2023-04-03T13:19:29;16.50;54.70
11736;DHT22;5924;51.398;7.088;2023-04-03T13:22:02;16.70;54.70
11736;DHT22;5924;51.398;7.088;2023-04-03T13:24:33;16.70;54.90
11736;DHT22;5924;51.398;7.088;2023-04-03T13:27:01;17.40;55.50
11736;DHT22;5924;51.398;7.088;2023-04-03T13:29:33;17.70;52.30
11736;DHT22;5924;51.398;7.088;2023-04-03T13:32:00;17.90;53.10
11736;DHT22;5924;51.398;7.088;2023-04-03T13:34:38;17.90;52.80
11736;DHT22;5924;51.398;7.088;2023-04-03T13:37:06;17.40;52.00
11736;DHT22;5924;51.398;7.088;2023-04-03T13:39:38;17.30;51.50
11736;DHT22;5924;51.398;7.088;2023-04-03T13:42:29;17.40;49.90
11736;DHT22;5924;51.398;7.088;2023-04-03T13:45:18;16.90;50.00
11736;DHT22;5924;51.398;7.088;2023-04-03T13:47:46;17.40;50.80
11736;DHT22;5924;51.398;7.088;2023-04-03T13:53:10;18.10;53.00
11736;DHT22;5924;51.398;7.088;2023-04-03T13:55:54;18.50;51.50
11736;DHT22;5924;51.398;7.088;2023-04-03T13:58:24;18.70;49.30
11736;DHT22;5924;51.398;7.088;2023-04-03T14:06:20;18.70;47.80
11736;DHT22;5924;51.398;7.088;2023-04-03T14:08:46;18.80;48.30
11736;DHT22;5924;51.398;7.088;2023-04-03T14:11:20;19.00;49.40
11736;DHT22;5924;51.398;7.088;2023-04-03T14:13:48;19.60;48.00
11736;DHT22;5924;51.398;7.088;2023-04-03T14:16:22;19.80;48.00
11736;DHT22;5924;51.398;7.088;2023-04-03T14:18:51;19.70;46.00
11736;DHT22;5924;51.398;7.088;2023-04-03T14:21:19;19.10;44.80
11736;DHT22;5924;51.398;7.088;2023-04-03T14:23:45;18.60;45.80
11736;DHT22;5924;51.398;7.088;2023-04-03T14:26:20;18.00;47.10
11736;DHT22;5924;51.398;7.088;2023-04-03T14:28:48;17.40;47.40
11736;DHT22;5924;51.398;7.088;2023-04-03T14:31:15;16.80;48.20
11736;DHT22;5924;51.398;7.088;2023-04-03T14:33:41;15.70;50.60
11736;DHT22;5924;51.398;7.088;2023-04-03T14:36:18;14.90;51.60
11736;DHT22;5924;51.398;7.088;2023-04-03T14:38:45;14.40;52.80
11736;DHT22;5924;51.398;7.088;2023-04-03T14:41:17;14.20;54.00
11736;DHT22;5924;51.398;7.088;2023-04-03T14:43:45;15.00;53.60
11736;DHT22;5924;51.398;7.088;2023-04-03T14:46:31;16.10;52.30
11736;DHT22;5924;51.398;7.088;2023-04-03T14:48:57;17.20;49.50
11736;DHT22;5924;51.398;7.088;2023-04-03T14:51:23;17.40;48.90
11736;DHT22;5924;51.398;7.088;2023-04-03T14:53:48;17.40;47.50
11736;DHT22;5924;51.398;7.088;2023-04-03T14:56:26;17.60;48.50
11736;DHT22;5924;51.398;7.088;2023-04-03T14:59:00;17.90;47.30
11736;DHT22;5924;51.398;7.088;2023-04-03T15:01:27;18.60;48.10
11736;DHT22;5924;51.398;7.088;2023-04-03T15:03:53;19.20;46.50
11736;DHT22;5924;51.398;7.088;2023-04-03T15:06:19;18.70;45.30
11736;DHT22;5924;51.398;7.088;2023-04-03T15:08:46;18.90;46.20
11736;DHT22;5924;51.398;7.088;2023-04-03T15:11:13;19.00;46.50
11736;DHT22;5924;51.398;7.088;2023-04-03T15:13:39;18.90;44.80
11736;DHT22;5924;51.398;7.088;2023-04-03T15:16:23;18.60;44.80
11736;DHT22;5924;51.398;7.088;2023-04-03T15:18:49;18.50;44.80
11736;DHT22;5924;51.398;7.088;2023-04-03T15:21:15;18.70;45.50
11736;DHT22;5924;51.398;7.088;2023-04-03T15:23:40;19.00;45.20
11736;DHT22;5924;51.398;7.088;2023-04-03T15:26:07;18.40;44.00
11736;DHT22;5924;51.398;7.088;2023-04-03T15:28:36;17.70;45.00
11736;DHT22;5924;51.398;7.088;2023-04-03T15:31:03;16.60;46.10
11736;DHT22;5924;51.398;7.088;2023-04-03T15:33:30;15.40;47.50
11736;DHT22;5924;51.398;7.088;2023-04-03T15:35:56;15.10;50.00
11736;DHT22;5924;51.398;7.088;2023-04-03T15:38:22;15.70;49.80
11736;DHT22;5924;51.398;7.088;2023-04-03T15:40:47;16.40;49.30
11736;DHT22;5924;51.398;7.088;2023-04-03T15:43:14;16.80;47.40
11736;DHT22;5924;51.398;7.088;2023-04-03T15:45:41;17.60;47.70
11736;DHT22;5924;51.398;7.088;2023-04-03T15:48:07;18.00;46.20
11736;DHT22;5924;51.398;7.088;2023-04-03T15:50:34;18.70;47.00
11736;DHT22;5924;51.398;7.088;2023-04-03T15:53:01;19.20;45.20
11736;DHT22;5924;51.398;7.088;2023-04-03T15:55:29;19.80;44.90
11736;DHT22;5924;51.398;7.088;2023-04-03T15:57:55;19.80;44.80
11736;DHT22;5924;51.398;7.088;2023-04-03T16:00:22;19.70;43.90
11736;DHT22;5924;51.398;7.088;2023-04-03T16:02:52;19.50;43.20
11736;DHT22;5924;51.398;7.088;2023-04-03T16:05:19;19.40;44.10
11736;DHT22;5924;51.398;7.088;2023-04-03T16:07:45;19.10;44.40
11736;DHT22;5924;51.398;7.088;2023-04-03T16:10:13;18.60;44.40
11736;DHT22;5924;51.398;7.088;2023-04-03T16:12:39;19.00;45.20
11736;DHT22;5924;51.398;7.088;2023-04-03T16:15:05;19.30;44.40
11736;DHT22;5924;51.398;7.088;2023-04-03T16:17:33;19.10;44.60
11736;DHT22;5924;51.398;7.088;2023-04-03T16:20:00;19.30;44.10
11736;DHT22;5924;51.398;7.088;2023-04-03T16:22:27;19.30;44.40
11736;DHT22;5924;51.398;7.088;2023-04-03T16:24:53;19.70;44.40
11736;DHT22;5924;51.398;7.088;2023-04-03T16:27:20;19.40;43.70
11736;DHT22;5924;51.398;7.088;2023-04-03T16:29:46;19.20;44.20
11736;DHT22;5924;51.398;7.088;2023-04-03T16:32:12;19.20;43.70
11736;DHT22;5924;51.398;7.088;2023-04-03T16:34:38;18.80;44.00
11736;DHT22;5924;51.398;7.088;2023-04-03T16:37:06;18.80;43.90
11736;DHT22;5924;51.398;7.088;2023-04-03T16:39:34;19.00;44.60
11736;DHT22;5924;51.398;7.088;2023-04-03T16:42:00;18.80;43.30
11736;DHT22;5924;51.398;7.088;2023-04-03T16:44:26;18.80;43.80
11736;DHT22;5924;51.398;7.088;2023-04-03T16:46:51;18.60;43.70
11736;DHT22;5924;51.398;7.088;2023-04-03T16:49:17;18.00;43.90
11736;DHT22;5924;51.398;7.088;2023-04-03T16:51:43;17.00;44.20
11736;DHT22;5924;51.398;7.088;2023-04-03T16:54:09;16.50;45.80
11736;DHT22;5924;51.398;7.088;2023-04-03T16:56:36;16.60;45.40
11736;DHT22;5924;51.398;7.088;2023-04-03T16:59:02;16.50;45.70
11736;DHT22;5924;51.398;7.088;2023-04-03T17:01:28;16.40;45.70
11736;DHT22;5924;51.398;7.088;2023-04-03T17:03:53;16.00;45.70
11736;DHT22;5924;51.398;7.088;2023-04-03T17:06:20;15.20;45.90
11736;DHT22;5924;51.398;7.088;2023-04-03T17:08:48;13.70;48.00
11736;DHT22;5924;51.398;7.088;2023-04-03T17:11:15;12.40;50.60
11736;DHT22;5924;51.398;7.088;2023-04-03T17:13:40;10.90;51.20
11736;DHT22;5924;51.398;7.088;2023-04-03T17:16:10;10.00;53.70
11736;DHT22;5924;51.398;7.088;2023-04-03T17:18:36;9.20;57.60
11736;DHT22;5924;51.398;7.088;2023-04-03T17:21:02;8.60;59.70
11736;DHT22;5924;51.398;7.088;2023-04-03T17:23:29;8.20;62.70
11736;DHT22;5924;51.398;7.088;2023-04-03T17:25:55;7.90;64.90
11736;DHT22;5924;51.398;7.088;2023-04-03T17:28:21;7.50;67.00
11736;DHT22;5924;51.398;7.088;2023-04-03T17:30:53;7.30;67.90
11736;DHT22;5924;51.398;7.088;2023-04-03T17:33:19;7.10;68.70
11736;DHT22;5924;51.398;7.088;2023-04-03T17:35:45;7.00;68.50
11736;DHT22;5924;51.398;7.088;2023-04-03T17:38:10;6.80;69.70
11736;DHT22;5924;51.398;7.088;2023-04-03T17:40:36;6.70;70.70
11736;DHT22;5924;51.398;7.088;2023-04-03T17:43:01;6.50;71.40